Thunder radar more information blitzortung!


Radar de pluja more information rain snow radar


Visita la nostra xarxa de llocs de meteo:

Template documentation
and downloads

And another site



No particular awareness of the weather is required.    There are no Weather-warnings

Pagina Historial Weather Underground text

Diari Resum February 10, 2016 Unitats:  Mètric    Imperial   Tant
« Previous Dia
SegĂźent Dia »
Diari Setmana Mensual Anual Personalitzada
  Maxima: Minima: Media:
Temperatura: 17.2 °C 10.1 °C 12.9 °C
Punt de rosada: 6.3 °C 2.8 °C 5.3 °C
Humitat: 72 % 45 % 61 %
Wind Speed: 18.5 km/h 0.0 km/h 5.6 km/h
RĂ fegues de vent: 18.5 km/h - -
Vent:- - South
Pression baro: 1012.8 hPa 1007.0 hPa -
Precipitacions: 0.0 mm    
Historical Graphs
 
 
Dades de taula per February 10, 2016
Temps Temperatura Punt de rosada Pression baro Vent Wind Speed RĂ fegues de vent Humitat Rainfall Rate (Hourly)
11:19 15.0 °C 3.2 °C 1011.7 hPa WSW 6.9 km/h 7.6 km/h 45 % 0.0 mm
11:24 14.9 °C 3.1 °C 1011.7 hPa WSW 16.7 km/h 16.7 km/h 45 % 0.0 mm
11:29 14.9 °C 3.4 °C 1011.7 hPa SSW 13.0 km/h 13.0 km/h 46 % 0.0 mm
11:34 14.7 °C 2.9 °C 1011.7 hPa WSW 16.7 km/h 16.7 km/h 45 % 0.0 mm
11:39 14.5 °C 3.0 °C 1011.7 hPa SW 14.8 km/h 14.8 km/h 46 % 0.0 mm
11:44 14.3 °C 2.8 °C 1011.7 hPa SW 13.0 km/h 13.0 km/h 46 % 0.0 mm
11:49 14.3 °C 2.8 °C 1010.7 hPa West 13.0 km/h 13.0 km/h 46 % 0.0 mm
11:54 14.6 °C 3.1 °C 1010.7 hPa WSW 8.7 km/h 8.7 km/h 46 % 0.0 mm
11:59 14.6 °C 3.1 °C 1010.7 hPa WSW 18.5 km/h 18.5 km/h 46 % 0.0 mm
12:04 14.6 °C 3.1 °C 1011.7 hPa SSW 9.7 km/h 10.0 km/h 46 % 0.0 mm
12:09 14.8 °C 3.3 °C 1011.7 hPa West 11.1 km/h 11.1 km/h 46 % 0.0 mm
12:14 14.8 °C 3.3 °C 1011.7 hPa WNW 13.0 km/h 13.0 km/h 46 % 0.0 mm
12:19 15.0 °C 3.4 °C 1012.8 hPa WSW 7.4 km/h 7.4 km/h 46 % 0.0 mm
12:24 15.0 °C 3.4 °C 1012.8 hPa WSW 3.9 km/h 7.2 km/h 46 % 0.0 mm
12:29 15.0 °C 3.4 °C 1012.8 hPa WSW 3.9 km/h 7.2 km/h 46 % 0.0 mm
13:29 16.0 °C 4.4 °C 1010.0 hPa WSW 16.7 km/h 16.7 km/h 46 % 0.0 mm
13:34 16.0 °C 4.4 °C 1010.0 hPa SW 13.0 km/h 13.0 km/h 46 % 0.0 mm
13:39 16.2 °C 4.6 °C 1010.0 hPa SW 15.6 km/h 15.6 km/h 46 % 0.0 mm
13:44 16.3 °C 4.7 °C 1010.0 hPa WSW 13.0 km/h 13.0 km/h 46 % 0.0 mm
13:49 16.6 °C 4.9 °C 1010.0 hPa SSW 18.5 km/h 18.5 km/h 46 % 0.0 mm
13:54 17.2 °C 5.2 °C 1009.0 hPa WSW 14.8 km/h 14.8 km/h 45 % 0.0 mm
13:59 16.6 °C 4.6 °C 1009.0 hPa SSW 16.7 km/h 16.7 km/h 45 % 0.0 mm
14:09 16.2 °C 4.2 °C 1008.0 hPa West 13.0 km/h 13.0 km/h 45 % 0.0 mm
14:14 16.3 °C 4.7 °C 1008.0 hPa WSW 7.4 km/h 7.4 km/h 46 % 0.0 mm
14:24 15.8 °C 4.2 °C 1008.0 hPa SW 11.1 km/h 11.1 km/h 46 % 0.0 mm
14:29 15.8 °C 4.2 °C 1008.0 hPa SW 14.8 km/h 14.8 km/h 46 % 0.0 mm
14:34 15.7 °C 4.1 °C 1008.0 hPa West 13.0 km/h 13.0 km/h 46 % 0.0 mm
14:39 15.5 °C 4.2 °C 1007.0 hPa SW 13.0 km/h 13.0 km/h 47 % 0.0 mm
14:44 15.3 °C 4.1 °C 1007.0 hPa SW 18.5 km/h 18.5 km/h 47 % 0.0 mm
14:54 14.7 °C 4.4 °C 1008.0 hPa WSW 11.9 km/h 11.9 km/h 50 % 0.0 mm
14:59 14.6 °C 4.3 °C 1008.0 hPa WSW 13.0 km/h 13.0 km/h 50 % 0.0 mm
15:04 14.5 °C 4.5 °C 1008.0 hPa SW 14.8 km/h 14.8 km/h 51 % 0.0 mm
15:14 14.3 °C 4.3 °C 1007.0 hPa SW 7.4 km/h 7.4 km/h 51 % 0.0 mm
15:19 14.3 °C 4.6 °C 1007.0 hPa WSW 10.3 km/h 10.3 km/h 52 % 0.0 mm
15:24 14.2 °C 4.7 °C 1008.0 hPa WSW 7.4 km/h 7.4 km/h 53 % 0.0 mm
15:29 13.9 °C 5.0 °C 1008.0 hPa WSW 5.6 km/h 5.6 km/h 55 % 0.0 mm
15:34 13.7 °C 5.1 °C 1008.0 hPa West 5.6 km/h 5.6 km/h 56 % 0.0 mm
15:39 13.4 °C 5.3 °C 1008.0 hPa WSW 5.6 km/h 5.6 km/h 58 % 0.0 mm
15:44 13.4 °C 5.6 °C 1008.0 hPa WSW 6.1 km/h 6.1 km/h 59 % 0.0 mm
15:49 13.2 °C 5.8 °C 1008.0 hPa NNW 5.0 km/h 5.0 km/h 61 % 0.0 mm
15:54 13.2 °C 5.8 °C 1008.0 hPa WSW 5.6 km/h 5.6 km/h 61 % 0.0 mm
15:59 13.3 °C 5.9 °C 1008.0 hPa West 5.6 km/h 5.6 km/h 61 % 0.0 mm
16:04 13.3 °C 5.9 °C 1008.0 hPa WSW 11.1 km/h 11.1 km/h 61 % 0.0 mm
16:09 13.3 °C 5.9 °C 1008.0 hPa West 3.7 km/h 3.7 km/h 61 % 0.0 mm
16:14 13.2 °C 5.8 °C 1008.0 hPa West 3.7 km/h 3.7 km/h 61 % 0.0 mm
16:24 13.1 °C 6.0 °C 1007.0 hPa South 3.7 km/h 3.7 km/h 62 % 0.0 mm
16:29 13.1 °C 5.7 °C 1007.0 hPa NW 4.2 km/h 4.2 km/h 61 % 0.0 mm
16:34 13.1 °C 6.0 °C 1007.0 hPa ESE 3.7 km/h 3.7 km/h 62 % 0.0 mm
16:39 13.1 °C 5.7 °C 1007.0 hPa North 3.7 km/h 3.7 km/h 61 % 0.0 mm
16:49 13.1 °C 6.0 °C 1007.0 hPa ENE 1.9 km/h 1.9 km/h 62 % 0.0 mm
16:54 13.1 °C 6.0 °C 1007.0 hPa Calm     62 % 0.0 mm
17:04 13.1 °C 6.0 °C 1007.0 hPa SW 3.7 km/h 3.7 km/h 62 % 0.0 mm
17:09 13.0 °C 5.9 °C 1007.0 hPa WSW 3.7 km/h 3.7 km/h 62 % 0.0 mm
17:14 13.0 °C 5.9 °C 1007.0 hPa WSW 4.7 km/h 4.7 km/h 62 % 0.0 mm
17:24 12.9 °C 6.0 °C 1007.0 hPa WSW 8.7 km/h 8.7 km/h 63 % 0.0 mm
17:29 12.8 °C 5.9 °C 1007.0 hPa WSW 3.2 km/h 3.2 km/h 63 % 0.0 mm
17:34 12.8 °C 5.9 °C 1007.0 hPa NNE 3.2 km/h 3.2 km/h 63 % 0.0 mm
17:39 12.8 °C 5.9 °C 1007.0 hPa WNW 5.0 km/h   63 % 0.0 mm
17:44 12.7 °C 5.8 °C 1007.0 hPa WSW 7.4 km/h 7.4 km/h 63 % 0.0 mm
17:49 12.7 °C 5.8 °C 1007.0 hPa West 5.3 km/h 5.3 km/h 63 % 0.0 mm
17:54 12.6 °C 5.7 °C 1007.0 hPa WSW 3.7 km/h 3.7 km/h 63 % 0.0 mm
17:59 12.6 °C 5.9 °C 1007.0 hPa WSW 1.9 km/h 2.3 km/h 64 % 0.0 mm
18:00 12.6 °C 5.9 °C 1007.0 hPa WSW 2.6 km/h 2.6 km/h 64 % 0.0 mm
18:05 12.6 °C 6.2 °C 1007.0 hPa Calm   3.2 km/h 65 % 0.0 mm
18:10 12.6 °C 5.9 °C 1007.0 hPa WSW 1.6 km/h 3.2 km/h 64 % 0.0 mm
18:15 12.5 °C 5.9 °C 1007.0 hPa WSW 1.6 km/h 4.8 km/h 64 % 0.0 mm
18:20 12.5 °C 5.9 °C 1007.0 hPa WSW 1.6 km/h 4.8 km/h 64 % 0.0 mm
18:25 12.5 °C 5.9 °C 1007.0 hPa Calm   6.4 km/h 64 % 0.0 mm
18:30 12.5 °C 5.9 °C 1007.0 hPa West 1.6 km/h 3.2 km/h 64 % 0.0 mm
18:35 12.4 °C 6.0 °C 1007.0 hPa Calm   1.6 km/h 65 % 0.0 mm
18:40 12.4 °C 6.0 °C 1007.0 hPa Calm   3.2 km/h 65 % 0.0 mm
18:45 12.4 °C 6.0 °C 1007.0 hPa Calm   1.6 km/h 65 % 0.0 mm
18:50 12.4 °C 6.0 °C 1007.0 hPa NNW 1.6 km/h 3.2 km/h 65 % 0.0 mm
18:55 12.4 °C 6.0 °C 1008.0 hPa Calm   1.6 km/h 65 % 0.0 mm
19:00 12.4 °C 6.0 °C 1008.0 hPa WNW 1.6 km/h 3.2 km/h 65 % 0.0 mm
19:10 12.4 °C 6.0 °C 1008.0 hPa NW 1.6 km/h 3.2 km/h 65 % 0.0 mm
19:15 12.4 °C 6.0 °C 1008.0 hPa Calm   1.6 km/h 65 % 0.0 mm
19:20 12.4 °C 6.0 °C 1008.0 hPa Calm   3.2 km/h 65 % 0.0 mm
19:25 12.4 °C 6.0 °C 1008.0 hPa WNW 1.9 km/h   65 % 0.0 mm
19:30 12.4 °C 6.0 °C 1008.0 hPa Calm   3.2 km/h 65 % 0.0 mm
19:35 12.5 °C 6.1 °C 1008.0 hPa NW 1.6 km/h 1.6 km/h 65 % 0.0 mm
19:40 12.5 °C 6.3 °C 1008.0 hPa North 1.6 km/h 3.2 km/h 66 % 0.0 mm
19:45 12.5 °C 6.3 °C 1008.0 hPa NNE 3.2 km/h 4.8 km/h 66 % 0.0 mm
19:50 12.4 °C 6.2 °C 1008.0 hPa North 3.2 km/h 6.4 km/h 66 % 0.0 mm
19:55 12.4 °C 6.2 °C 1008.0 hPa North 1.6 km/h 8.0 km/h 66 % 0.0 mm
20:00 12.4 °C 6.2 °C 1008.0 hPa North 1.6 km/h 4.8 km/h 66 % 0.0 mm
20:05 12.3 °C 6.1 °C 1008.0 hPa Calm   3.2 km/h 66 % 0.0 mm
20:10 12.3 °C 6.1 °C 1008.0 hPa Calm   3.2 km/h 66 % 0.0 mm
20:15 12.3 °C 6.1 °C 1008.0 hPa NNE 3.2 km/h 4.8 km/h 66 % 0.0 mm
20:20 12.3 °C 6.1 °C 1008.0 hPa Calm   8.0 km/h 66 % 0.0 mm
20:25 12.2 °C 6.1 °C 1008.0 hPa NNE 1.6 km/h 3.2 km/h 66 % 0.0 mm
20:30 12.2 °C 6.1 °C 1008.0 hPa North 1.6 km/h 4.8 km/h 66 % 0.0 mm
20:35 12.2 °C 6.1 °C 1008.0 hPa ENE 3.2 km/h 8.0 km/h 66 % 0.0 mm
20:40 12.1 °C 6.2 °C 1008.0 hPa East 3.2 km/h 8.0 km/h 67 % 0.0 mm
20:45 12.0 °C 6.1 °C 1008.0 hPa ESE 3.2 km/h 4.8 km/h 67 % 0.0 mm
20:50 11.9 °C 6.2 °C 1008.0 hPa ENE 3.2 km/h 4.8 km/h 68 % 0.0 mm
20:55 11.8 °C 6.1 °C 1009.0 hPa NE 1.6 km/h 4.8 km/h 68 % 0.0 mm
21:00 11.8 °C 6.1 °C 1009.0 hPa NE 1.6 km/h 4.8 km/h 68 % 0.0 mm
21:05 11.8 °C 6.1 °C 1009.0 hPa ENE 1.6 km/h 3.2 km/h 68 % 0.0 mm
21:10 11.8 °C 6.1 °C 1009.0 hPa NE 1.6 km/h 3.2 km/h 68 % 0.0 mm
21:15 11.8 °C 6.1 °C 1009.0 hPa Calm   1.6 km/h 68 % 0.0 mm
21:25 11.8 °C 6.3 °C 1010.0 hPa Calm   1.6 km/h 69 % 0.0 mm
21:30 11.7 °C 6.2 °C 1010.0 hPa Calm   1.6 km/h 69 % 0.0 mm
21:35 11.8 °C 6.3 °C 1010.0 hPa West 1.6 km/h 3.2 km/h 69 % 0.0 mm
21:40 11.8 °C 6.3 °C 1010.0 hPa Calm   1.6 km/h 69 % 0.0 mm
21:45 11.8 °C 6.3 °C 1010.0 hPa East 3.2 km/h 4.8 km/h 69 % 0.0 mm
21:50 11.8 °C 6.3 °C 1010.0 hPa ESE 3.2 km/h 8.0 km/h 69 % 0.0 mm
21:55 11.7 °C 6.0 °C 1010.0 hPa ESE 4.8 km/h 9.7 km/h 68 % 0.0 mm
22:00 11.6 °C 5.9 °C 1010.0 hPa East 8.0 km/h 9.7 km/h 68 % 0.0 mm
22:05 11.5 °C 5.8 °C 1010.0 hPa East 4.8 km/h 6.4 km/h 68 % 0.0 mm
22:10 11.4 °C 5.7 °C 1009.0 hPa East 3.2 km/h 9.7 km/h 68 % 0.0 mm
22:15 11.3 °C 5.4 °C 1009.0 hPa ENE 3.2 km/h 6.4 km/h 67 % 0.0 mm
22:20 11.3 °C 5.6 °C 1009.0 hPa ENE 3.2 km/h 6.4 km/h 68 % 0.0 mm
22:25 11.2 °C 5.3 °C 1010.0 hPa ENE 3.2 km/h 8.0 km/h 67 % 0.0 mm
22:30 11.1 °C 5.4 °C 1010.0 hPa ENE 8.0 km/h 9.7 km/h 68 % 0.0 mm
22:35 11.0 °C 5.3 °C 1010.0 hPa ENE 8.0 km/h 11.3 km/h 68 % 0.0 mm
22:40 11.0 °C 5.3 °C 1009.0 hPa ENE 4.8 km/h 8.0 km/h 68 % 0.0 mm
22:45 10.9 °C 5.4 °C 1009.0 hPa ENE 8.0 km/h 11.3 km/h 69 % 0.0 mm
22:50 10.8 °C 5.3 °C 1009.0 hPa ENE 4.8 km/h 9.7 km/h 69 % 0.0 mm
22:55 10.7 °C 5.4 °C 1010.0 hPa East 4.8 km/h 8.0 km/h 70 % 0.0 mm
23:00 10.7 °C 5.7 °C 1010.0 hPa East 3.2 km/h 9.7 km/h 71 % 0.0 mm
23:05 10.6 °C 5.8 °C 1010.0 hPa NE 4.8 km/h 9.7 km/h 72 % 0.0 mm
23:10 10.6 °C 5.6 °C 1010.0 hPa NE 1.6 km/h 8.0 km/h 71 % 0.0 mm
23:15 10.5 °C 5.3 °C 1010.0 hPa NE 4.8 km/h 8.0 km/h 70 % 0.0 mm
23:20 10.5 °C 5.3 °C 1010.0 hPa NE 3.2 km/h 4.8 km/h 70 % 0.0 mm
23:25 10.4 °C 5.2 °C 1010.0 hPa East 4.8 km/h 9.7 km/h 70 % 0.0 mm
23:30 10.3 °C 5.1 °C 1010.0 hPa East 4.8 km/h 9.7 km/h 70 % 0.0 mm
23:35 10.2 °C 4.9 °C 1010.0 hPa East 4.8 km/h 8.0 km/h 70 % 0.0 mm
23:40 10.2 °C 4.8 °C 1010.0 hPa East 3.2 km/h 8.0 km/h 69 % 0.0 mm
23:45 10.1 °C 4.9 °C 1010.0 hPa ENE 4.8 km/h 8.0 km/h 70 % 0.0 mm
23:50 10.1 °C 4.9 °C 1010.0 hPa ENE 3.2 km/h 8.0 km/h 70 % 0.0 mm
23:55 10.1 °C 4.7 °C 1010.0 hPa East 4.8 km/h 11.3 km/h 69 % 0.0 mm
Meteo Sesrovires
Elogis d' Weather Underground - 3.25 mb

Guio original per  Jim McMurry - jmcmurry@mwt.net Adaptat per a la plantilla per  Wim van der Kuil - Leuven-Template.eu

Trobareu la nostra informacio del temps tambe a:

Weather Underground

AWEKAS